sensor_id;sensor_type;location;lat;lon;timestamp;temperature;humidity
5276;DHT22;2661;50.786;12.728;2022-12-11T00:00:05;-0.30;99.90
5276;DHT22;2661;50.786;12.728;2022-12-11T00:02:32;-0.40;99.90
5276;DHT22;2661;50.786;12.728;2022-12-11T00:04:58;-0.20;99.90
5276;DHT22;2661;50.786;12.728;2022-12-11T00:07:25;0.00;99.90
5276;DHT22;2661;50.786;12.728;2022-12-11T00:09:52;0.00;99.90
5276;DHT22;2661;50.786;12.728;2022-12-11T00:12:18;0.00;99.90
5276;DHT22;2661;50.786;12.728;2022-12-11T00:14:45;0.00;99.90
5276;DHT22;2661;50.786;12.728;2022-12-11T00:17:11;0.00;99.90
5276;DHT22;2661;50.786;12.728;2022-12-11T00:19:38;-0.10;99.90
5276;DHT22;2661;50.786;12.728;2022-12-11T00:22:04;-0.30;99.90
5276;DHT22;2661;50.786;12.728;2022-12-11T00:24:31;-0.40;99.90
5276;DHT22;2661;50.786;12.728;2022-12-11T00:26:58;-0.20;99.90
5276;DHT22;2661;50.786;12.728;2022-12-11T00:29:25;-0.20;99.90
5276;DHT22;2661;50.786;12.728;2022-12-11T00:31:52;-0.30;99.90
5276;DHT22;2661;50.786;12.728;2022-12-11T00:34:18;-0.30;99.90
5276;DHT22;2661;50.786;12.728;2022-12-11T00:36:45;-0.30;99.90
5276;DHT22;2661;50.786;12.728;2022-12-11T00:39:11;-0.20;99.90
5276;DHT22;2661;50.786;12.728;2022-12-11T00:41:38;-0.30;99.90
5276;DHT22;2661;50.786;12.728;2022-12-11T00:44:04;-0.20;99.90
5276;DHT22;2661;50.786;12.728;2022-12-11T00:46:31;-0.20;99.90
5276;DHT22;2661;50.786;12.728;2022-12-11T00:48:58;-0.20;99.90
5276;DHT22;2661;50.786;12.728;2022-12-11T00:51:24;-0.30;99.90
5276;DHT22;2661;50.786;12.728;2022-12-11T00:53:51;-0.10;99.90
5276;DHT22;2661;50.786;12.728;2022-12-11T00:56:18;-0.20;99.90
5276;DHT22;2661;50.786;12.728;2022-12-11T00:58:46;-0.20;99.90
5276;DHT22;2661;50.786;12.728;2022-12-11T01:01:14;-0.10;99.90
5276;DHT22;2661;50.786;12.728;2022-12-11T01:03:41;-0.10;99.90
5276;DHT22;2661;50.786;12.728;2022-12-11T01:06:09;0.00;99.90
5276;DHT22;2661;50.786;12.728;2022-12-11T01:08:38;-0.10;99.90
5276;DHT22;2661;50.786;12.728;2022-12-11T01:11:06;0.00;99.90
5276;DHT22;2661;50.786;12.728;2022-12-11T01:13:33;-0.10;99.90
5276;DHT22;2661;50.786;12.728;2022-12-11T01:16:04;-0.20;99.90
5276;DHT22;2661;50.786;12.728;2022-12-11T01:18:31;-0.10;99.90
5276;DHT22;2661;50.786;12.728;2022-12-11T01:20:57;-0.20;99.90
5276;DHT22;2661;50.786;12.728;2022-12-11T01:23:24;-0.40;99.90
5276;DHT22;2661;50.786;12.728;2022-12-11T01:25:51;-0.50;99.90
5276;DHT22;2661;50.786;12.728;2022-12-11T01:28:17;-0.60;99.90
5276;DHT22;2661;50.786;12.728;2022-12-11T01:30:44;-0.50;99.90
5276;DHT22;2661;50.786;12.728;2022-12-11T01:33:10;-0.50;99.90
5276;DHT22;2661;50.786;12.728;2022-12-11T01:35:38;-0.60;99.90
5276;DHT22;2661;50.786;12.728;2022-12-11T01:38:04;-0.60;99.90
5276;DHT22;2661;50.786;12.728;2022-12-11T01:40:31;-0.40;99.90
5276;DHT22;2661;50.786;12.728;2022-12-11T01:42:58;-0.30;99.90
5276;DHT22;2661;50.786;12.728;2022-12-11T01:45:29;-0.20;99.90
5276;DHT22;2661;50.786;12.728;2022-12-11T01:48:06;-0.30;99.90
5276;DHT22;2661;50.786;12.728;2022-12-11T01:50:35;-0.40;99.90
5276;DHT22;2661;50.786;12.728;2022-12-11T01:53:05;-0.50;99.90
5276;DHT22;2661;50.786;12.728;2022-12-11T01:55:32;-0.70;99.90
5276;DHT22;2661;50.786;12.728;2022-12-11T01:57:59;-0.80;99.90
5276;DHT22;2661;50.786;12.728;2022-12-11T02:00:25;-0.90;99.90
5276;DHT22;2661;50.786;12.728;2022-12-11T02:02:52;-0.90;99.90
5276;DHT22;2661;50.786;12.728;2022-12-11T02:05:19;-0.90;99.90
5276;DHT22;2661;50.786;12.728;2022-12-11T02:07:47;-0.80;99.90
5276;DHT22;2661;50.786;12.728;2022-12-11T02:10:16;-0.70;99.90
5276;DHT22;2661;50.786;12.728;2022-12-11T02:20:22;-0.70;99.90
5276;DHT22;2661;50.786;12.728;2022-12-11T02:25:56;-0.70;99.90
5276;DHT22;2661;50.786;12.728;2022-12-11T02:30:57;-0.70;99.90
5276;DHT22;2661;50.786;12.728;2022-12-11T02:33:33;-0.70;99.90
5276;DHT22;2661;50.786;12.728;2022-12-11T02:36:02;-0.70;99.90
5276;DHT22;2661;50.786;12.728;2022-12-11T02:38:31;-0.60;99.90
5276;DHT22;2661;50.786;12.728;2022-12-11T02:40:59;-0.70;99.90
5276;DHT22;2661;50.786;12.728;2022-12-11T02:43:26;-0.70;99.90
5276;DHT22;2661;50.786;12.728;2022-12-11T02:45:52;-0.80;99.90
5276;DHT22;2661;50.786;12.728;2022-12-11T02:48:19;-0.70;99.90
5276;DHT22;2661;50.786;12.728;2022-12-11T02:50:48;-0.80;99.90
5276;DHT22;2661;50.786;12.728;2022-12-11T02:53:17;-0.70;99.90
5276;DHT22;2661;50.786;12.728;2022-12-11T02:55:46;-0.70;99.90
5276;DHT22;2661;50.786;12.728;2022-12-11T02:58:16;-0.70;99.90
5276;DHT22;2661;50.786;12.728;2022-12-11T03:00:43;-0.70;99.90
5276;DHT22;2661;50.786;12.728;2022-12-11T03:03:10;-0.70;99.90
5276;DHT22;2661;50.786;12.728;2022-12-11T03:05:37;-0.70;99.90
5276;DHT22;2661;50.786;12.728;2022-12-11T03:08:04;-0.80;99.90
5276;DHT22;2661;50.786;12.728;2022-12-11T03:10:31;-0.70;99.90
5276;DHT22;2661;50.786;12.728;2022-12-11T03:12:58;-0.70;99.90
5276;DHT22;2661;50.786;12.728;2022-12-11T03:15:28;-0.80;99.90
5276;DHT22;2661;50.786;12.728;2022-12-11T03:18:03;-1.00;99.90
5276;DHT22;2661;50.786;12.728;2022-12-11T03:20:42;-1.00;99.90
5276;DHT22;2661;50.786;12.728;2022-12-11T03:25:41;-1.00;99.90
5276;DHT22;2661;50.786;12.728;2022-12-11T03:28:14;-1.00;99.90
5276;DHT22;2661;50.786;12.728;2022-12-11T03:30:41;-0.90;99.90
5276;DHT22;2661;50.786;12.728;2022-12-11T03:33:10;-0.90;99.90
5276;DHT22;2661;50.786;12.728;2022-12-11T03:35:39;-0.90;99.90
5276;DHT22;2661;50.786;12.728;2022-12-11T03:38:07;-0.80;99.90
5276;DHT22;2661;50.786;12.728;2022-12-11T03:40:35;-0.80;99.90
5276;DHT22;2661;50.786;12.728;2022-12-11T03:43:02;-0.90;99.90
5276;DHT22;2661;50.786;12.728;2022-12-11T03:45:30;-0.90;99.90
5276;DHT22;2661;50.786;12.728;2022-12-11T03:47:58;-0.90;99.90
5276;DHT22;2661;50.786;12.728;2022-12-11T03:50:25;-0.90;99.90
5276;DHT22;2661;50.786;12.728;2022-12-11T03:52:53;-0.90;99.90
5276;DHT22;2661;50.786;12.728;2022-12-11T03:55:20;-0.90;99.90
5276;DHT22;2661;50.786;12.728;2022-12-11T03:57:47;-0.80;99.90
5276;DHT22;2661;50.786;12.728;2022-12-11T04:00:16;-0.70;99.90
5276;DHT22;2661;50.786;12.728;2022-12-11T04:02:43;-1.00;99.90
5276;DHT22;2661;50.786;12.728;2022-12-11T04:05:10;-1.00;99.90
5276;DHT22;2661;50.786;12.728;2022-12-11T04:07:37;-1.20;99.90
5276;DHT22;2661;50.786;12.728;2022-12-11T04:10:04;-1.20;99.90
5276;DHT22;2661;50.786;12.728;2022-12-11T04:12:30;-1.20;99.90
5276;DHT22;2661;50.786;12.728;2022-12-11T04:14:57;-1.20;99.90
5276;DHT22;2661;50.786;12.728;2022-12-11T04:17:30;-1.20;99.90
5276;DHT22;2661;50.786;12.728;2022-12-11T04:20:15;-1.10;99.90
5276;DHT22;2661;50.786;12.728;2022-12-11T04:23:10;-1.00;99.90
5276;DHT22;2661;50.786;12.728;2022-12-11T04:28:55;-1.20;99.90
5276;DHT22;2661;50.786;12.728;2022-12-11T04:31:22;-1.00;99.90
5276;DHT22;2661;50.786;12.728;2022-12-11T04:33:49;-1.00;99.90
5276;DHT22;2661;50.786;12.728;2022-12-11T04:36:16;-1.00;99.90
5276;DHT22;2661;50.786;12.728;2022-12-11T04:38:42;-1.20;99.90
5276;DHT22;2661;50.786;12.728;2022-12-11T04:41:10;-1.10;99.90
5276;DHT22;2661;50.786;12.728;2022-12-11T04:43:37;-1.10;99.90
5276;DHT22;2661;50.786;12.728;2022-12-11T04:46:06;-1.20;99.90
5276;DHT22;2661;50.786;12.728;2022-12-11T04:48:33;-1.30;99.90
5276;DHT22;2661;50.786;12.728;2022-12-11T04:51:00;-1.30;99.90
5276;DHT22;2661;50.786;12.728;2022-12-11T04:53:26;-1.30;99.90
5276;DHT22;2661;50.786;12.728;2022-12-11T04:55:53;-1.40;99.90
5276;DHT22;2661;50.786;12.728;2022-12-11T04:58:21;-1.50;99.90
5276;DHT22;2661;50.786;12.728;2022-12-11T05:00:47;-1.40;99.90
5276;DHT22;2661;50.786;12.728;2022-12-11T05:03:14;-1.40;99.90
5276;DHT22;2661;50.786;12.728;2022-12-11T05:05:45;-1.50;99.90
5276;DHT22;2661;50.786;12.728;2022-12-11T05:08:12;-1.50;99.90
5276;DHT22;2661;50.786;12.728;2022-12-11T05:10:39;-1.60;99.90
5276;DHT22;2661;50.786;12.728;2022-12-11T05:13:06;-1.50;99.90
5276;DHT22;2661;50.786;12.728;2022-12-11T05:15:32;-1.40;99.90
5276;DHT22;2661;50.786;12.728;2022-12-11T05:17:59;-1.30;99.90
5276;DHT22;2661;50.786;12.728;2022-12-11T05:20:25;-1.20;99.90
5276;DHT22;2661;50.786;12.728;2022-12-11T05:22:52;-1.20;99.90
5276;DHT22;2661;50.786;12.728;2022-12-11T05:25:18;-1.20;99.90
5276;DHT22;2661;50.786;12.728;2022-12-11T05:27:45;-1.20;99.90
5276;DHT22;2661;50.786;12.728;2022-12-11T05:30:12;-1.40;99.90
5276;DHT22;2661;50.786;12.728;2022-12-11T05:32:38;-1.60;99.90
5276;DHT22;2661;50.786;12.728;2022-12-11T05:35:05;-1.50;99.90
5276;DHT22;2661;50.786;12.728;2022-12-11T05:37:32;-1.30;99.90
5276;DHT22;2661;50.786;12.728;2022-12-11T05:39:59;-1.40;99.90
5276;DHT22;2661;50.786;12.728;2022-12-11T05:42:26;-1.40;99.90
5276;DHT22;2661;50.786;12.728;2022-12-11T05:44:54;-1.40;99.90
5276;DHT22;2661;50.786;12.728;2022-12-11T05:47:21;-1.50;99.90
5276;DHT22;2661;50.786;12.728;2022-12-11T05:49:47;-1.60;99.90
5276;DHT22;2661;50.786;12.728;2022-12-11T05:52:14;-1.50;99.90
5276;DHT22;2661;50.786;12.728;2022-12-11T05:54:42;-1.60;99.90
5276;DHT22;2661;50.786;12.728;2022-12-11T05:57:08;-1.60;99.90
5276;DHT22;2661;50.786;12.728;2022-12-11T05:59:35;-1.60;99.90
5276;DHT22;2661;50.786;12.728;2022-12-11T06:02:01;-1.50;99.90
5276;DHT22;2661;50.786;12.728;2022-12-11T06:04:28;-1.50;99.90
5276;DHT22;2661;50.786;12.728;2022-12-11T06:06:55;-1.50;99.90
5276;DHT22;2661;50.786;12.728;2022-12-11T06:09:21;-1.50;99.90
5276;DHT22;2661;50.786;12.728;2022-12-11T06:11:48;-1.40;99.90
5276;DHT22;2661;50.786;12.728;2022-12-11T06:14:14;-1.40;99.90
5276;DHT22;2661;50.786;12.728;2022-12-11T06:16:41;-1.50;99.90
5276;DHT22;2661;50.786;12.728;2022-12-11T06:19:12;-1.40;99.90
5276;DHT22;2661;50.786;12.728;2022-12-11T06:21:39;-1.50;99.90
5276;DHT22;2661;50.786;12.728;2022-12-11T06:24:05;-1.40;99.90
5276;DHT22;2661;50.786;12.728;2022-12-11T06:26:32;-1.40;99.90
5276;DHT22;2661;50.786;12.728;2022-12-11T06:28:59;-1.40;99.90
5276;DHT22;2661;50.786;12.728;2022-12-11T06:31:25;-1.40;99.90
5276;DHT22;2661;50.786;12.728;2022-12-11T06:33:52;-1.40;99.90
5276;DHT22;2661;50.786;12.728;2022-12-11T06:36:21;-1.40;99.90
5276;DHT22;2661;50.786;12.728;2022-12-11T06:38:47;-1.40;99.90
5276;DHT22;2661;50.786;12.728;2022-12-11T06:41:14;-1.40;99.90
5276;DHT22;2661;50.786;12.728;2022-12-11T06:43:41;-1.50;99.90
5276;DHT22;2661;50.786;12.728;2022-12-11T06:46:12;-1.60;99.90
5276;DHT22;2661;50.786;12.728;2022-12-11T06:48:38;-1.50;99.90
5276;DHT22;2661;50.786;12.728;2022-12-11T06:51:08;-1.40;99.90
5276;DHT22;2661;50.786;12.728;2022-12-11T06:53:35;-1.40;99.90
5276;DHT22;2661;50.786;12.728;2022-12-11T06:56:03;-1.30;99.90
5276;DHT22;2661;50.786;12.728;2022-12-11T06:58:30;-1.40;99.90
5276;DHT22;2661;50.786;12.728;2022-12-11T07:00:57;-1.50;99.90
5276;DHT22;2661;50.786;12.728;2022-12-11T07:03:23;-1.60;99.90
5276;DHT22;2661;50.786;12.728;2022-12-11T07:05:50;-1.50;99.90
5276;DHT22;2661;50.786;12.728;2022-12-11T07:08:16;-1.60;99.90
5276;DHT22;2661;50.786;12.728;2022-12-11T07:10:43;-1.50;99.90
5276;DHT22;2661;50.786;12.728;2022-12-11T07:13:10;-1.50;99.90
5276;DHT22;2661;50.786;12.728;2022-12-11T07:15:36;-1.40;99.90
5276;DHT22;2661;50.786;12.728;2022-12-11T07:18:06;-1.40;99.90
5276;DHT22;2661;50.786;12.728;2022-12-11T07:20:32;-1.40;99.90
5276;DHT22;2661;50.786;12.728;2022-12-11T07:22:59;-1.60;99.90
5276;DHT22;2661;50.786;12.728;2022-12-11T07:25:25;-1.70;99.90
5276;DHT22;2661;50.786;12.728;2022-12-11T07:27:52;-1.60;99.90
5276;DHT22;2661;50.786;12.728;2022-12-11T07:30:18;-1.70;99.90
5276;DHT22;2661;50.786;12.728;2022-12-11T07:32:45;-1.60;99.90
5276;DHT22;2661;50.786;12.728;2022-12-11T07:35:12;-1.60;99.90
5276;DHT22;2661;50.786;12.728;2022-12-11T07:37:39;-1.50;99.90
5276;DHT22;2661;50.786;12.728;2022-12-11T07:40:06;-1.50;99.90
5276;DHT22;2661;50.786;12.728;2022-12-11T07:42:33;-1.60;99.90
5276;DHT22;2661;50.786;12.728;2022-12-11T07:45:00;-1.60;99.90
5276;DHT22;2661;50.786;12.728;2022-12-11T07:47:26;-1.60;99.90
5276;DHT22;2661;50.786;12.728;2022-12-11T07:49:53;-1.50;99.90
5276;DHT22;2661;50.786;12.728;2022-12-11T07:52:19;-1.40;99.90
5276;DHT22;2661;50.786;12.728;2022-12-11T07:54:46;-1.30;99.90
5276;DHT22;2661;50.786;12.728;2022-12-11T07:57:13;-1.30;99.90
5276;DHT22;2661;50.786;12.728;2022-12-11T07:59:39;-1.20;99.90
5276;DHT22;2661;50.786;12.728;2022-12-11T08:02:08;-1.20;99.90
5276;DHT22;2661;50.786;12.728;2022-12-11T08:04:35;-1.10;99.90
5276;DHT22;2661;50.786;12.728;2022-12-11T08:07:02;-1.00;99.90
5276;DHT22;2661;50.786;12.728;2022-12-11T08:09:28;-1.00;99.90
5276;DHT22;2661;50.786;12.728;2022-12-11T08:11:55;-1.00;99.90
5276;DHT22;2661;50.786;12.728;2022-12-11T08:14:21;-1.00;99.90
5276;DHT22;2661;50.786;12.728;2022-12-11T08:16:48;-1.00;99.90
5276;DHT22;2661;50.786;12.728;2022-12-11T08:19:15;-1.00;99.90
5276;DHT22;2661;50.786;12.728;2022-12-11T08:21:41;-1.10;99.90
5276;DHT22;2661;50.786;12.728;2022-12-11T08:24:08;-1.10;99.90
5276;DHT22;2661;50.786;12.728;2022-12-11T08:26:35;-1.10;99.90
5276;DHT22;2661;50.786;12.728;2022-12-11T08:29:02;-1.00;99.90
5276;DHT22;2661;50.786;12.728;2022-12-11T08:31:28;-1.00;99.90
5276;DHT22;2661;50.786;12.728;2022-12-11T08:33:55;-0.90;99.90
5276;DHT22;2661;50.786;12.728;2022-12-11T08:36:22;-1.00;99.90
5276;DHT22;2661;50.786;12.728;2022-12-11T08:38:49;-0.90;99.90
5276;DHT22;2661;50.786;12.728;2022-12-11T08:41:21;-0.80;99.90
5276;DHT22;2661;50.786;12.728;2022-12-11T08:43:48;-0.80;99.90
5276;DHT22;2661;50.786;12.728;2022-12-11T08:46:18;-0.60;99.90
5276;DHT22;2661;50.786;12.728;2022-12-11T08:48:45;-0.70;99.90
5276;DHT22;2661;50.786;12.728;2022-12-11T08:51:12;-0.70;99.90
5276;DHT22;2661;50.786;12.728;2022-12-11T08:53:39;-0.70;99.90
5276;DHT22;2661;50.786;12.728;2022-12-11T08:56:10;-0.70;99.90
5276;DHT22;2661;50.786;12.728;2022-12-11T08:58:36;-0.80;99.90
5276;DHT22;2661;50.786;12.728;2022-12-11T09:01:07;-0.70;99.90
5276;DHT22;2661;50.786;12.728;2022-12-11T09:03:34;-0.90;99.90
5276;DHT22;2661;50.786;12.728;2022-12-11T09:06:08;-0.70;99.90
5276;DHT22;2661;50.786;12.728;2022-12-11T09:08:35;-0.80;99.90
5276;DHT22;2661;50.786;12.728;2022-12-11T09:11:06;-0.80;99.90
5276;DHT22;2661;50.786;12.728;2022-12-11T09:13:33;-0.70;99.90
5276;DHT22;2661;50.786;12.728;2022-12-11T09:15:59;-0.70;99.90
5276;DHT22;2661;50.786;12.728;2022-12-11T09:18:26;-0.70;99.90
5276;DHT22;2661;50.786;12.728;2022-12-11T09:20:56;-0.70;99.90
5276;DHT22;2661;50.786;12.728;2022-12-11T09:23:23;-0.70;99.90
5276;DHT22;2661;50.786;12.728;2022-12-11T09:25:49;-0.80;99.90
5276;DHT22;2661;50.786;12.728;2022-12-11T09:28:16;-0.80;99.90
5276;DHT22;2661;50.786;12.728;2022-12-11T09:30:43;-0.80;99.90
5276;DHT22;2661;50.786;12.728;2022-12-11T09:33:09;-0.70;99.90
5276;DHT22;2661;50.786;12.728;2022-12-11T09:35:36;-0.70;99.90
5276;DHT22;2661;50.786;12.728;2022-12-11T09:38:03;-0.70;99.90
5276;DHT22;2661;50.786;12.728;2022-12-11T09:40:30;-0.70;99.90
5276;DHT22;2661;50.786;12.728;2022-12-11T09:43:02;-0.60;99.90
5276;DHT22;2661;50.786;12.728;2022-12-11T09:45:31;-0.50;99.90
5276;DHT22;2661;50.786;12.728;2022-12-11T09:47:58;-0.50;99.90
5276;DHT22;2661;50.786;12.728;2022-12-11T09:50:27;-0.50;99.90
5276;DHT22;2661;50.786;12.728;2022-12-11T09:52:58;-0.50;99.90
5276;DHT22;2661;50.786;12.728;2022-12-11T09:55:36;-0.50;99.90
5276;DHT22;2661;50.786;12.728;2022-12-11T09:58:17;-0.40;99.90
5276;DHT22;2661;50.786;12.728;2022-12-11T10:00:47;-0.40;99.90
5276;DHT22;2661;50.786;12.728;2022-12-11T10:05:54;-0.20;99.90
5276;DHT22;2661;50.786;12.728;2022-12-11T10:13:54;-0.10;99.90
5276;DHT22;2661;50.786;12.728;2022-12-11T10:16:39;-0.10;99.90
5276;DHT22;2661;50.786;12.728;2022-12-11T10:19:23;-0.10;99.90
5276;DHT22;2661;50.786;12.728;2022-12-11T10:21:51;-0.10;99.90
5276;DHT22;2661;50.786;12.728;2022-12-11T10:24:27;-0.10;99.90
5276;DHT22;2661;50.786;12.728;2022-12-11T10:27:16;-0.30;99.90
5276;DHT22;2661;50.786;12.728;2022-12-11T10:29:45;-0.10;99.90
5276;DHT22;2661;50.786;12.728;2022-12-11T10:32:23;0.00;99.90
5276;DHT22;2661;50.786;12.728;2022-12-11T10:34:53;0.00;99.90
5276;DHT22;2661;50.786;12.728;2022-12-11T10:37:22;-0.10;99.90
5276;DHT22;2661;50.786;12.728;2022-12-11T10:39:49;0.10;99.90
5276;DHT22;2661;50.786;12.728;2022-12-11T10:42:17;0.00;99.90
5276;DHT22;2661;50.786;12.728;2022-12-11T10:44:55;0.00;99.90
5276;DHT22;2661;50.786;12.728;2022-12-11T10:47:21;-0.20;99.90
5276;DHT22;2661;50.786;12.728;2022-12-11T10:49:55;-0.20;99.90
5276;DHT22;2661;50.786;12.728;2022-12-11T10:52:29;-0.20;99.90
5276;DHT22;2661;50.786;12.728;2022-12-11T10:55:04;-0.10;99.90
5276;DHT22;2661;50.786;12.728;2022-12-11T10:57:33;-0.10;99.90
5276;DHT22;2661;50.786;12.728;2022-12-11T11:00:01;-0.10;99.90
5276;DHT22;2661;50.786;12.728;2022-12-11T11:02:39;-0.20;99.90
5276;DHT22;2661;50.786;12.728;2022-12-11T11:05:14;-0.20;99.90
5276;DHT22;2661;50.786;12.728;2022-12-11T11:07:41;-0.30;99.90
5276;DHT22;2661;50.786;12.728;2022-12-11T11:12:38;-0.20;99.90
5276;DHT22;2661;50.786;12.728;2022-12-11T11:15:06;-0.10;99.90
5276;DHT22;2661;50.786;12.728;2022-12-11T11:17:43;0.00;99.90
5276;DHT22;2661;50.786;12.728;2022-12-11T11:20:21;0.00;99.90
5276;DHT22;2661;50.786;12.728;2022-12-11T11:22:49;0.00;99.90
5276;DHT22;2661;50.786;12.728;2022-12-11T11:25:18;0.10;99.90
5276;DHT22;2661;50.786;12.728;2022-12-11T11:27:52;0.20;99.90
5276;DHT22;2661;50.786;12.728;2022-12-11T11:30:24;0.20;99.90
5276;DHT22;2661;50.786;12.728;2022-12-11T11:32:55;0.20;99.90
5276;DHT22;2661;50.786;12.728;2022-12-11T11:35:23;0.10;99.90
5276;DHT22;2661;50.786;12.728;2022-12-11T11:37:53;0.10;99.90
5276;DHT22;2661;50.786;12.728;2022-12-11T11:40:23;0.20;99.90
5276;DHT22;2661;50.786;12.728;2022-12-11T11:42:55;0.20;99.90
5276;DHT22;2661;50.786;12.728;2022-12-11T11:45:24;0.20;99.90
5276;DHT22;2661;50.786;12.728;2022-12-11T11:48:04;0.00;99.90
5276;DHT22;2661;50.786;12.728;2022-12-11T11:50:37;-0.10;99.90
5276;DHT22;2661;50.786;12.728;2022-12-11T11:53:09;-0.30;99.90
5276;DHT22;2661;50.786;12.728;2022-12-11T11:55:57;-0.30;99.90
5276;DHT22;2661;50.786;12.728;2022-12-11T11:58:30;-0.20;99.90
5276;DHT22;2661;50.786;12.728;2022-12-11T12:00:57;-0.20;99.90
5276;DHT22;2661;50.786;12.728;2022-12-11T12:03:24;-0.30;99.90
5276;DHT22;2661;50.786;12.728;2022-12-11T12:06:05;-0.30;99.90
5276;DHT22;2661;50.786;12.728;2022-12-11T12:08:52;-0.40;99.90
5276;DHT22;2661;50.786;12.728;2022-12-11T12:11:26;-0.50;99.90
5276;DHT22;2661;50.786;12.728;2022-12-11T12:14:00;-0.60;99.90
5276;DHT22;2661;50.786;12.728;2022-12-11T12:21:46;-0.80;99.90
5276;DHT22;2661;50.786;12.728;2022-12-11T12:24:26;-0.90;99.90
5276;DHT22;2661;50.786;12.728;2022-12-11T12:27:05;-1.00;99.90
5276;DHT22;2661;50.786;12.728;2022-12-11T12:30:08;-1.10;99.90
5276;DHT22;2661;50.786;12.728;2022-12-11T12:32:52;-0.90;99.90
5276;DHT22;2661;50.786;12.728;2022-12-11T12:35:33;-0.80;99.90
5276;DHT22;2661;50.786;12.728;2022-12-11T12:38:05;-0.70;99.90
5276;DHT22;2661;50.786;12.728;2022-12-11T12:40:38;-0.60;99.90
5276;DHT22;2661;50.786;12.728;2022-12-11T12:48:30;-0.70;99.90
5276;DHT22;2661;50.786;12.728;2022-12-11T12:50:56;-0.70;99.90
5276;DHT22;2661;50.786;12.728;2022-12-11T12:53:24;-0.70;99.90
5276;DHT22;2661;50.786;12.728;2022-12-11T12:55:52;-0.70;99.90
5276;DHT22;2661;50.786;12.728;2022-12-11T13:01:08;-0.80;99.90
5276;DHT22;2661;50.786;12.728;2022-12-11T13:03:36;-0.70;99.90
5276;DHT22;2661;50.786;12.728;2022-12-11T13:06:05;-0.70;99.90
5276;DHT22;2661;50.786;12.728;2022-12-11T13:08:35;-0.60;99.90
5276;DHT22;2661;50.786;12.728;2022-12-11T13:11:07;-0.70;99.90
5276;DHT22;2661;50.786;12.728;2022-12-11T13:13:38;-0.80;99.90
5276;DHT22;2661;50.786;12.728;2022-12-11T13:16:34;-0.80;99.90
5276;DHT22;2661;50.786;12.728;2022-12-11T13:18:52;-0.80;99.90
5276;DHT22;2661;50.786;12.728;2022-12-11T13:21:33;-1.10;99.90
5276;DHT22;2661;50.786;12.728;2022-12-11T13:27:06;-1.30;99.90
5276;DHT22;2661;50.786;12.728;2022-12-11T13:29:34;-1.50;99.90
5276;DHT22;2661;50.786;12.728;2022-12-11T13:34:35;-1.40;99.90
5276;DHT22;2661;50.786;12.728;2022-12-11T13:37:03;-1.30;99.90
5276;DHT22;2661;50.786;12.728;2022-12-11T13:39:30;-1.30;99.90
5276;DHT22;2661;50.786;12.728;2022-12-11T13:42:02;-1.30;99.90
5276;DHT22;2661;50.786;12.728;2022-12-11T13:44:30;-1.30;99.90
5276;DHT22;2661;50.786;12.728;2022-12-11T13:46:59;-1.30;99.90
5276;DHT22;2661;50.786;12.728;2022-12-11T13:49:28;-1.20;99.90
5276;DHT22;2661;50.786;12.728;2022-12-11T13:51:59;-1.40;99.90
5276;DHT22;2661;50.786;12.728;2022-12-11T13:54:26;-1.40;99.90
5276;DHT22;2661;50.786;12.728;2022-12-11T13:56:58;-1.50;99.90
5276;DHT22;2661;50.786;12.728;2022-12-11T14:01:52;-1.50;99.90
5276;DHT22;2661;50.786;12.728;2022-12-11T14:04:19;-1.50;99.90
5276;DHT22;2661;50.786;12.728;2022-12-11T14:06:47;-1.50;99.90
5276;DHT22;2661;50.786;12.728;2022-12-11T14:09:18;-1.60;99.90
5276;DHT22;2661;50.786;12.728;2022-12-11T14:11:45;-1.50;99.90
5276;DHT22;2661;50.786;12.728;2022-12-11T14:14:26;-1.60;99.90
5276;DHT22;2661;50.786;12.728;2022-12-11T14:16:53;-1.60;99.90
5276;DHT22;2661;50.786;12.728;2022-12-11T14:19:20;-1.70;99.90
5276;DHT22;2661;50.786;12.728;2022-12-11T14:21:55;-1.70;99.90
5276;DHT22;2661;50.786;12.728;2022-12-11T14:24:21;-1.80;99.90
5276;DHT22;2661;50.786;12.728;2022-12-11T14:26:49;-1.80;99.90
5276;DHT22;2661;50.786;12.728;2022-12-11T14:29:22;-1.80;99.90
5276;DHT22;2661;50.786;12.728;2022-12-11T14:31:49;-1.90;99.90
5276;DHT22;2661;50.786;12.728;2022-12-11T14:34:16;-2.00;99.90
5276;DHT22;2661;50.786;12.728;2022-12-11T14:36:44;-2.00;99.90
5276;DHT22;2661;50.786;12.728;2022-12-11T14:39:13;-2.00;99.90
5276;DHT22;2661;50.786;12.728;2022-12-11T14:44:17;-2.00;99.90
5276;DHT22;2661;50.786;12.728;2022-12-11T14:46:52;-2.00;99.90
5276;DHT22;2661;50.786;12.728;2022-12-11T14:49:22;-2.10;99.90
5276;DHT22;2661;50.786;12.728;2022-12-11T14:51:50;-2.00;99.90
5276;DHT22;2661;50.786;12.728;2022-12-11T14:54:25;-2.00;99.90
5276;DHT22;2661;50.786;12.728;2022-12-11T14:56:53;-2.00;99.90
5276;DHT22;2661;50.786;12.728;2022-12-11T14:59:20;-2.00;99.90
5276;DHT22;2661;50.786;12.728;2022-12-11T15:02:00;-2.10;99.90
5276;DHT22;2661;50.786;12.728;2022-12-11T15:04:29;-2.10;99.90
5276;DHT22;2661;50.786;12.728;2022-12-11T15:06:56;-2.30;99.90
5276;DHT22;2661;50.786;12.728;2022-12-11T15:12:06;-2.40;99.90
5276;DHT22;2661;50.786;12.728;2022-12-11T15:14:33;-2.40;99.90
5276;DHT22;2661;50.786;12.728;2022-12-11T15:17:00;-2.40;99.90
5276;DHT22;2661;50.786;12.728;2022-12-11T15:19:28;-2.40;99.90
5276;DHT22;2661;50.786;12.728;2022-12-11T15:22:00;-2.50;99.90
5276;DHT22;2661;50.786;12.728;2022-12-11T15:24:29;-2.40;99.90
5276;DHT22;2661;50.786;12.728;2022-12-11T15:26:59;-2.40;99.90
5276;DHT22;2661;50.786;12.728;2022-12-11T15:29:33;-2.40;99.90
5276;DHT22;2661;50.786;12.728;2022-12-11T15:32:02;-2.30;99.90
5276;DHT22;2661;50.786;12.728;2022-12-11T15:37:29;-2.50;99.90
5276;DHT22;2661;50.786;12.728;2022-12-11T15:39:56;-2.60;99.90
5276;DHT22;2661;50.786;12.728;2022-12-11T15:44:49;-2.60;99.90
5276;DHT22;2661;50.786;12.728;2022-12-11T15:47:18;-2.50;99.90
5276;DHT22;2661;50.786;12.728;2022-12-11T15:49:45;-2.50;99.90
5276;DHT22;2661;50.786;12.728;2022-12-11T15:52:12;-2.40;99.90
5276;DHT22;2661;50.786;12.728;2022-12-11T15:54:38;-2.40;99.90
5276;DHT22;2661;50.786;12.728;2022-12-11T15:57:05;-2.30;99.90
5276;DHT22;2661;50.786;12.728;2022-12-11T15:59:33;-2.30;99.90
5276;DHT22;2661;50.786;12.728;2022-12-11T16:01:59;-2.20;99.90
5276;DHT22;2661;50.786;12.728;2022-12-11T16:04:27;-2.30;99.90
5276;DHT22;2661;50.786;12.728;2022-12-11T16:06:53;-2.40;99.90
5276;DHT22;2661;50.786;12.728;2022-12-11T16:09:20;-2.20;99.90
5276;DHT22;2661;50.786;12.728;2022-12-11T16:11:47;-2.30;99.90
5276;DHT22;2661;50.786;12.728;2022-12-11T16:14:13;-2.40;99.90
5276;DHT22;2661;50.786;12.728;2022-12-11T16:16:40;-2.30;99.90
5276;DHT22;2661;50.786;12.728;2022-12-11T16:19:06;-2.40;99.90
5276;DHT22;2661;50.786;12.728;2022-12-11T16:21:33;-2.60;99.90
5276;DHT22;2661;50.786;12.728;2022-12-11T16:24:00;-2.60;99.90
5276;DHT22;2661;50.786;12.728;2022-12-11T16:26:26;-2.60;99.90
5276;DHT22;2661;50.786;12.728;2022-12-11T16:28:53;-2.50;99.90
5276;DHT22;2661;50.786;12.728;2022-12-11T16:31:20;-2.40;99.90
5276;DHT22;2661;50.786;12.728;2022-12-11T16:33:46;-2.30;99.90
5276;DHT22;2661;50.786;12.728;2022-12-11T16:36:16;-2.30;99.90
5276;DHT22;2661;50.786;12.728;2022-12-11T16:38:44;-2.30;99.90
5276;DHT22;2661;50.786;12.728;2022-12-11T16:41:18;-2.40;99.90
5276;DHT22;2661;50.786;12.728;2022-12-11T16:43:45;-2.30;99.90
5276;DHT22;2661;50.786;12.728;2022-12-11T16:46:15;-2.30;99.90
5276;DHT22;2661;50.786;12.728;2022-12-11T16:48:43;-2.30;99.90
5276;DHT22;2661;50.786;12.728;2022-12-11T16:51:09;-2.20;99.90
5276;DHT22;2661;50.786;12.728;2022-12-11T16:53:36;-2.30;99.90
5276;DHT22;2661;50.786;12.728;2022-12-11T16:56:06;-2.30;99.90
5276;DHT22;2661;50.786;12.728;2022-12-11T16:58:33;-2.20;99.90